Time;durP1;ratioP1;P1;durP2;ratioP2;P2;SDS_P1;SDS_P2;PMS_P1;PMS_P2;Temp;Humidity;BMP_temperature;BMP_pressure;BME280_temperature;BME280_humidity;BME280_pressure;Samples;Min_cycle;Max_cycle;Signal;HPM_P1;HPM_P2
2023/06/12 00:01:39;;;;;;;8.93;3.90;;;19.40;58.10;;;;;;5050823;28;20052;-68
2023/06/12 00:04:06;;;;;;;4.70;3.30;;;19.40;58.10;;;;;;5048804;28;20041;-68
2023/06/12 00:06:33;;;;;;;5.27;3.77;;;19.40;58.10;;;;;;5050124;28;20793;-68
2023/06/12 00:08:59;;;;;;;5.40;3.80;;;19.40;58.10;;;;;;5049847;28;20294;-68
2023/06/12 00:11:25;;;;;;;4.73;3.50;;;19.30;58.00;;;;;;5049574;28;20280;-68
2023/06/12 00:13:51;;;;;;;6.37;3.97;;;19.30;57.80;;;;;;5048689;28;20291;-68
2023/06/12 00:16:17;;;;;;;5.60;4.10;;;19.30;57.90;;;;;;5050078;28;20783;-68
2023/06/12 00:18:43;;;;;;;7.63;4.17;;;19.20;58.00;;;;;;5049498;28;20361;-68
2023/06/12 00:21:11;;;;;;;5.83;3.70;;;19.20;58.20;;;;;;5049347;28;20049;-68
2023/06/12 00:23:38;;;;;;;8.57;3.93;;;19.10;58.50;;;;;;5045062;28;20323;-68
2023/06/12 00:26:03;;;;;;;8.73;3.80;;;19.10;58.60;;;;;;5066156;28;20280;-68
2023/06/12 00:28:30;;;;;;;6.60;3.60;;;19.00;58.50;;;;;;5045256;28;20283;-68
2023/06/12 00:30:56;;;;;;;6.77;3.63;;;19.00;58.70;;;;;;5048887;28;20043;-68
2023/06/12 00:33:22;;;;;;;7.47;3.40;;;18.90;59.00;;;;;;5064339;28;20322;-68
2023/06/12 00:35:48;;;;;;;5.20;3.23;;;18.80;59.20;;;;;;5048899;28;20876;-68
2023/06/12 00:38:15;;;;;;;6.37;3.63;;;18.80;59.40;;;;;;5032341;28;20051;-68
2023/06/12 00:40:41;;;;;;;6.70;3.57;;;18.70;59.70;;;;;;5049278;28;20282;-68
2023/06/12 00:43:08;;;;;;;4.53;3.33;;;18.70;60.10;;;;;;5049266;28;20286;-68
2023/06/12 00:45:35;;;;;;;4.53;3.37;;;18.70;60.30;;;;;;5048025;28;20779;-68
2023/06/12 00:48:01;;;;;;;6.67;3.30;;;18.60;60.40;;;;;;5048691;28;20291;-68
2023/06/12 00:50:28;;;;;;;6.30;3.50;;;18.60;60.70;;;;;;5049294;28;20362;-68
2023/06/12 00:52:56;;;;;;;5.27;3.10;;;18.50;60.70;;;;;;5049177;28;20295;-68
2023/06/12 00:55:22;;;;;;;6.07;3.80;;;18.50;60.90;;;;;;5040759;28;20284;-68
2023/06/12 00:57:48;;;;;;;6.60;3.77;;;18.50;60.70;;;;;;5048282;28;20290;-68
2023/06/12 01:00:17;;;;;;;8.33;3.43;;;18.40;61.00;;;;;;5048575;28;20091;-68
2023/06/12 01:02:47;;;;;;;6.53;3.23;;;18.40;60.90;;;;;;5049139;28;20279;-69
2023/06/12 01:05:15;;;;;;;4.13;3.23;;;18.30;61.30;;;;;;5046036;28;20888;-68
2023/06/12 01:07:47;;;;;;;4.30;3.27;;;18.20;61.20;;;;;;5043729;28;20834;-68
2023/06/12 01:10:39;;;;;;;6.83;3.33;;;18.20;61.70;;;;;;5047140;28;20283;-68
2023/06/12 01:13:05;;;;;;;6.50;3.43;;;18.20;61.80;;;;;;5048399;28;20717;-68
2023/06/12 01:15:31;;;;;;;4.53;2.97;;;18.10;62.00;;;;;;5047705;28;20280;-68
2023/06/12 01:17:58;;;;;;;6.40;3.10;;;18.10;62.20;;;;;;5058597;28;20341;-68
2023/06/12 01:20:24;;;;;;;6.80;3.30;;;18.00;62.00;;;;;;5047830;28;20302;-68
2023/06/12 01:23:09;;;;;;;6.17;3.43;;;18.00;62.70;;;;;;5048087;28;20796;-68
2023/06/12 01:25:53;;;;;;;6.32;3.20;;;17.90;62.80;;;;;;5037963;28;20283;-68
2023/06/12 01:28:40;;;;;;;7.17;2.97;;;17.90;62.80;;;;;;5046404;28;20052;-68
2023/06/12 01:31:14;;;;;;;7.17;3.50;;;17.80;63.30;;;;;;5047747;28;20279;-68
2023/06/12 01:33:44;;;;;;;6.15;3.30;;;17.70;63.20;;;;;;5046632;28;20290;-68
2023/06/12 01:36:15;;;;;;;7.30;3.57;;;17.60;63.20;;;;;;5046548;28;20464;-68
2023/06/12 01:38:43;;;;;;;6.43;3.00;;;17.60;63.80;;;;;;5047011;28;20358;-68
2023/06/12 01:41:10;;;;;;;8.10;3.53;;;17.50;63.90;;;;;;5047333;28;21046;-68
2023/06/12 01:43:36;;;;;;;8.07;3.70;;;17.50;64.10;;;;;;5047490;28;20836;-68
2023/06/12 01:46:03;;;;;;;6.33;2.93;;;17.40;64.50;;;;;;5044670;28;20295;-68
2023/06/12 01:48:29;;;;;;;6.67;3.00;;;17.40;64.60;;;;;;5053566;28;20311;-68
2023/06/12 01:50:55;;;;;;;5.87;3.27;;;17.30;64.90;;;;;;5047161;28;20342;-68
2023/06/12 01:53:21;;;;;;;10.10;3.23;;;17.30;65.00;;;;;;5064238;28;20040;-68
2023/06/12 01:55:49;;;;;;;4.57;3.10;;;17.20;65.30;;;;;;5047214;28;20463;-68
2023/06/12 01:58:16;;;;;;;5.57;2.80;;;17.20;65.40;;;;;;5045004;28;20294;-68
2023/06/12 02:00:42;;;;;;;10.17;3.50;;;17.10;65.20;;;;;;5046331;28;20283;-68
2023/06/12 02:03:08;;;;;;;4.23;3.00;;;17.10;65.50;;;;;;5044286;28;20664;-68
2023/06/12 02:05:33;;;;;;;9.17;3.47;;;17.10;66.00;;;;;;5043389;28;20295;-68
2023/06/12 02:07:59;;;;;;;6.37;3.47;;;17.00;66.30;;;;;;5047101;28;20048;-68
2023/06/12 02:10:25;;;;;;;4.23;2.93;;;17.00;66.60;;;;;;5046147;28;20043;-68
2023/06/12 02:12:51;;;;;;;7.10;3.20;;;16.90;66.60;;;;;;5047134;28;20519;-68
2023/06/12 02:15:18;;;;;;;6.50;3.20;;;16.90;66.70;;;;;;5051224;28;20291;-68
2023/06/12 02:17:44;;;;;;;8.13;3.50;;;16.80;66.70;;;;;;5047053;28;20123;-68
2023/06/12 02:20:10;;;;;;;5.23;3.13;;;16.80;66.80;;;;;;5046432;28;20386;-68
2023/06/12 02:22:35;;;;;;;7.07;3.50;;;16.80;67.20;;;;;;5045905;28;20043;-68
2023/06/12 02:25:02;;;;;;;7.43;3.47;;;16.80;66.80;;;;;;5063102;28;20762;-68
2023/06/12 02:27:28;;;;;;;6.03;3.30;;;16.70;67.30;;;;;;5046982;28;20072;-68
2023/06/12 02:29:53;;;;;;;5.87;3.00;;;16.70;67.40;;;;;;5044007;28;20434;-68
2023/06/12 02:32:19;;;;;;;4.27;2.90;;;16.70;67.40;;;;;;5058663;28;20366;-68
2023/06/12 02:34:45;;;;;;;7.87;3.10;;;16.70;67.10;;;;;;5045815;28;20036;-67
2023/06/12 02:37:10;;;;;;;5.70;2.90;;;16.70;67.10;;;;;;5046197;28;20029;-67
2023/06/12 02:39:36;;;;;;;6.47;2.97;;;16.70;67.20;;;;;;5046524;28;20124;-67
2023/06/12 02:42:03;;;;;;;5.03;2.70;;;16.60;67.20;;;;;;5046172;28;20052;-67
2023/06/12 02:44:28;;;;;;;6.97;2.83;;;16.60;67.30;;;;;;5061274;28;20041;-67
2023/06/12 02:46:57;;;;;;;5.57;2.60;;;16.60;67.50;;;;;;5046618;28;20651;-67
2023/06/12 02:49:25;;;;;;;6.07;3.07;;;16.60;67.20;;;;;;5045841;28;20090;-67
2023/06/12 02:51:50;;;;;;;5.73;3.17;;;16.60;67.50;;;;;;5046399;28;20277;-67
2023/06/12 02:54:18;;;;;;;7.03;3.13;;;16.60;67.60;;;;;;5029339;28;20627;-67
2023/06/12 02:56:47;;;;;;;6.53;3.10;;;16.50;68.10;;;;;;5046781;28;20535;-67
2023/06/12 02:59:19;;;;;;;6.03;3.00;;;16.50;67.90;;;;;;5046392;28;20606;-67
2023/06/12 03:01:46;;;;;;;8.20;3.43;;;16.50;67.90;;;;;;5045887;28;20287;-67
2023/06/12 03:04:13;;;;;;;5.77;3.10;;;16.40;68.20;;;;;;5029467;28;20342;-67
2023/06/12 03:06:39;;;;;;;4.47;2.70;;;16.40;68.40;;;;;;5045239;28;20618;-67
2023/06/12 03:09:08;;;;;;;6.93;3.30;;;16.40;68.20;;;;;;5046457;28;20811;-67
2023/06/12 03:11:35;;;;;;;6.93;3.20;;;16.40;68.50;;;;;;5036020;28;20410;-67
2023/06/12 03:14:01;;;;;;;7.00;3.00;;;16.40;68.90;;;;;;5044334;28;20283;-67
2023/06/12 03:16:27;;;;;;;5.17;3.17;;;16.30;68.90;;;;;;5046206;28;20398;-67
2023/06/12 03:18:53;;;;;;;6.40;3.00;;;16.30;68.60;;;;;;5046554;28;20110;-67
2023/06/12 03:21:19;;;;;;;8.60;2.97;;;16.30;68.80;;;;;;5030040;28;20331;-67
2023/06/12 03:23:45;;;;;;;7.40;3.10;;;16.40;69.00;;;;;;5049388;28;20135;-67
2023/06/12 03:26:10;;;;;;;6.07;3.00;;;16.40;69.00;;;;;;5049751;28;20036;-67
2023/06/12 03:28:36;;;;;;;5.07;2.90;;;16.40;69.20;;;;;;5049377;28;20037;-67
2023/06/12 03:31:02;;;;;;;5.63;2.67;;;16.40;69.30;;;;;;5049640;28;20041;-67
2023/06/12 03:33:28;;;;;;;6.37;2.87;;;16.40;69.30;;;;;;5049401;28;20048;-67
2023/06/12 03:35:54;;;;;;;7.67;3.50;;;16.40;69.50;;;;;;5049271;28;20311;-67
2023/06/12 03:38:20;;;;;;;6.83;2.67;;;16.40;69.40;;;;;;5047445;28;20041;-67
2023/06/12 03:40:46;;;;;;;7.83;3.20;;;16.40;69.80;;;;;;5032532;28;20786;-67
2023/06/12 03:43:11;;;;;;;8.13;3.03;;;16.40;69.80;;;;;;5049650;28;20052;-67
2023/06/12 03:45:37;;;;;;;9.47;2.97;;;16.40;70.30;;;;;;5050080;28;20119;-67
2023/06/12 03:48:03;;;;;;;7.73;2.90;;;16.40;70.70;;;;;;5048922;28;20033;-67
2023/06/12 03:50:29;;;;;;;6.97;3.07;;;16.40;71.00;;;;;;5049688;28;20036;-67
2023/06/12 03:52:55;;;;;;;8.97;3.20;;;16.40;71.30;;;;;;5048560;28;20287;-67
2023/06/12 03:55:21;;;;;;;5.87;3.43;;;16.50;72.10;;;;;;5049313;28;20389;-67
2023/06/12 03:57:47;;;;;;;5.63;3.13;;;16.50;72.10;;;;;;5049076;28;20062;-67
2023/06/12 04:00:13;;;;;;;6.30;3.57;;;16.50;71.80;;;;;;5032804;28;20052;-67
2023/06/12 04:02:39;;;;;;;6.03;2.90;;;16.50;72.10;;;;;;5048736;28;20634;-67
2023/06/12 04:05:07;;;;;;;8.40;3.13;;;16.50;71.90;;;;;;5063165;28;20571;-67
2023/06/12 04:07:33;;;;;;;9.47;3.30;;;16.50;72.00;;;;;;5048185;28;20037;-67
2023/06/12 04:09:58;;;;;;;6.33;3.07;;;16.50;72.20;;;;;;5048891;28;20632;-67
2023/06/12 04:12:26;;;;;;;9.00;3.63;;;16.50;72.30;;;;;;5049341;28;20041;-67
2023/06/12 04:14:51;;;;;;;9.70;3.20;;;16.50;72.50;;;;;;5048477;28;20127;-67
2023/06/12 04:17:17;;;;;;;6.50;3.60;;;16.60;72.90;;;;;;5048749;28;20433;-67
2023/06/12 04:19:43;;;;;;;14.67;4.63;;;16.60;73.00;;;;;;5048937;28;20048;-67
2023/06/12 04:22:12;;;;;;;9.30;3.20;;;16.60;72.90;;;;;;5048429;28;20051;-67
2023/06/12 04:24:42;;;;;;;7.83;3.13;;;16.60;72.90;;;;;;5047716;28;20068;-67
2023/06/12 04:27:11;;;;;;;6.43;3.53;;;16.60;73.10;;;;;;5032375;28;20581;-67
2023/06/12 04:29:38;;;;;;;7.07;3.17;;;16.70;73.00;;;;;;5048281;28;20279;-67
2023/06/12 04:32:07;;;;;;;8.97;4.10;;;16.70;73.20;;;;;;5049330;28;20291;-67
2023/06/12 04:34:45;;;;;;;9.13;3.10;;;16.80;73.60;;;;;;5041438;28;20304;-67
2023/06/12 04:37:13;;;;;;;7.67;3.40;;;17.20;73.80;;;;;;5046583;28;20295;-67
2023/06/12 04:39:40;;;;;;;8.57;3.50;;;18.10;72.40;;;;;;5046164;28;20333;-67
2023/06/12 04:42:08;;;;;;;5.73;3.43;;;18.90;70.10;;;;;;5047839;28;20287;-67
2023/06/12 04:44:39;;;;;;;9.43;3.50;;;19.50;67.50;;;;;;5047986;28;20336;-67
2023/06/12 04:47:10;;;;;;;5.63;2.93;;;19.90;66.30;;;;;;5048494;28;20319;-67
2023/06/12 04:49:45;;;;;;;10.50;3.30;;;20.30;65.10;;;;;;5049837;28;20318;-67
2023/06/12 04:52:12;;;;;;;7.57;2.87;;;20.70;63.60;;;;;;5044510;28;20384;-67
2023/06/12 04:54:44;;;;;;;8.03;3.30;;;20.90;62.60;;;;;;5046964;28;20397;-67
2023/06/12 04:57:13;;;;;;;8.57;2.90;;;21.40;61.30;;;;;;5051846;28;20786;-67
2023/06/12 04:59:39;;;;;;;5.63;3.07;;;22.00;60.00;;;;;;5047654;28;20765;-67
2023/06/12 05:02:08;;;;;;;8.43;3.27;;;22.50;58.20;;;;;;5047394;28;20292;-68
2023/06/12 05:04:35;;;;;;;8.53;3.00;;;22.90;56.80;;;;;;5047836;28;20303;-68
2023/06/12 05:07:03;;;;;;;7.20;3.27;;;23.10;55.50;;;;;;5041917;28;20287;-68
2023/06/12 05:09:29;;;;;;;6.90;3.40;;;23.30;55.00;;;;;;5048908;28;21189;-68
2023/06/12 05:11:55;;;;;;;5.30;3.30;;;23.60;54.30;;;;;;5047601;28;20287;-68
2023/06/12 05:14:21;;;;;;;8.57;2.93;;;23.90;53.50;;;;;;5028953;28;20627;-68
2023/06/12 05:16:46;;;;;;;5.97;3.00;;;24.20;52.40;;;;;;5044122;28;20877;-68
2023/06/12 05:19:12;;;;;;;9.33;3.57;;;24.30;51.50;;;;;;5046992;28;20045;-68
2023/06/12 05:21:41;;;;;;;7.33;3.27;;;24.10;52.10;;;;;;5046959;28;20041;-68
2023/06/12 05:24:10;;;;;;;7.13;3.50;;;24.20;52.70;;;;;;5047527;28;20052;-68
2023/06/12 05:26:37;;;;;;;10.60;3.43;;;24.50;51.70;;;;;;5044661;28;20044;-68
2023/06/12 05:29:03;;;;;;;6.40;3.43;;;24.70;51.50;;;;;;5058975;28;20053;-68
2023/06/12 05:31:29;;;;;;;7.03;3.17;;;24.70;51.00;;;;;;5029973;28;20044;-68
2023/06/12 05:33:55;;;;;;;5.97;3.63;;;24.60;51.50;;;;;;5047575;28;20480;-68
2023/06/12 05:36:21;;;;;;;9.53;3.43;;;24.70;51.50;;;;;;5030134;28;20143;-68
2023/06/12 05:38:47;;;;;;;4.57;2.90;;;24.70;51.10;;;;;;5047101;28;20072;-68
2023/06/12 05:41:15;;;;;;;7.10;3.27;;;24.90;50.80;;;;;;5045400;28;20124;-68
2023/06/12 05:43:40;;;;;;;5.87;3.37;;;25.10;50.50;;;;;;5047398;28;20206;-69
2023/06/12 05:46:06;;;;;;;8.10;3.30;;;25.20;50.10;;;;;;5045632;28;20115;-69
2023/06/12 05:48:32;;;;;;;6.27;3.20;;;25.40;49.90;;;;;;5047722;28;20041;-69
2023/06/12 05:50:57;;;;;;;6.97;3.03;;;25.50;49.90;;;;;;5044395;28;20079;-69
2023/06/12 05:53:23;;;;;;;7.47;3.70;;;25.40;49.80;;;;;;5047425;28;20037;-69
2023/06/12 05:55:49;;;;;;;5.87;3.20;;;25.10;50.80;;;;;;5046430;28;20412;-68
2023/06/12 05:58:14;;;;;;;9.20;3.27;;;24.80;51.80;;;;;;5046957;28;20029;-68
2023/06/12 06:00:40;;;;;;;6.37;3.00;;;24.90;51.30;;;;;;5043975;28;20124;-69
2023/06/12 06:03:06;;;;;;;8.57;3.43;;;25.00;51.00;;;;;;5062382;28;20582;-69
2023/06/12 06:05:32;;;;;;;6.33;3.00;;;25.30;50.00;;;;;;5047682;28;20517;-69
2023/06/12 06:07:58;;;;;;;5.80;3.10;;;25.40;49.40;;;;;;5047269;28;20128;-69
2023/06/12 06:10:24;;;;;;;10.53;3.50;;;25.40;50.20;;;;;;5045650;28;20049;-69
2023/06/12 06:12:52;;;;;;;5.07;3.03;;;25.60;50.40;;;;;;5040336;28;20044;-69
2023/06/12 06:15:18;;;;;;;8.07;3.17;;;25.80;50.30;;;;;;5036309;28;20537;-69
2023/06/12 06:17:44;;;;;;;9.17;3.63;;;25.90;49.80;;;;;;5039449;28;20136;-69
2023/06/12 06:20:11;;;;;;;8.07;3.50;;;26.10;49.60;;;;;;5044731;28;20051;-69
2023/06/12 06:22:37;;;;;;;8.50;3.13;;;26.30;48.70;;;;;;5046473;28;20049;-69
2023/06/12 06:25:04;;;;;;;7.30;3.40;;;26.30;48.60;;;;;;5046117;28;20064;-69
2023/06/12 06:27:30;;;;;;;6.00;3.60;;;26.30;48.70;;;;;;5042008;28;20489;-69
2023/06/12 06:29:56;;;;;;;7.17;3.50;;;26.20;48.60;;;;;;5042484;28;20037;-69
2023/06/12 06:32:21;;;;;;;11.57;3.67;;;26.10;48.60;;;;;;5045542;28;20090;-69
2023/06/12 06:34:48;;;;;;;5.63;3.50;;;26.10;48.80;;;;;;5041742;28;20087;-69
2023/06/12 06:37:14;;;;;;;7.77;3.10;;;26.30;48.80;;;;;;5026340;28;20040;-69
2023/06/12 06:39:40;;;;;;;8.80;3.40;;;26.40;49.00;;;;;;5042165;28;20044;-69
2023/06/12 06:42:06;;;;;;;6.23;3.50;;;26.40;48.30;;;;;;5043103;28;20045;-69
2023/06/12 06:44:32;;;;;;;12.70;3.73;;;26.50;48.30;;;;;;5036155;28;20056;-69
2023/06/12 06:46:58;;;;;;;6.97;3.70;;;26.40;48.60;;;;;;5024830;28;20119;-69
2023/06/12 06:49:23;;;;;;;8.93;4.00;;;26.40;48.40;;;;;;5043811;28;20041;-69
2023/06/12 06:51:49;;;;;;;6.83;3.60;;;26.20;48.70;;;;;;5043693;28;20033;-69
2023/06/12 06:54:15;;;;;;;10.07;3.70;;;26.10;48.50;;;;;;5044885;28;20598;-69
2023/06/12 06:56:41;;;;;;;6.53;3.20;;;25.90;48.70;;;;;;5048799;28;20049;-69
2023/06/12 06:59:06;;;;;;;7.97;3.00;;;25.70;49.50;;;;;;5050083;28;20080;-69
2023/06/12 07:01:33;;;;;;;5.47;3.10;;;25.50;49.60;;;;;;5050013;28;20408;-69
2023/06/12 07:03:59;;;;;;;5.37;3.37;;;25.20;50.40;;;;;;5049775;28;20044;-69
2023/06/12 07:06:26;;;;;;;8.00;4.00;;;25.00;51.30;;;;;;5066908;28;20032;-69
2023/06/12 07:08:51;;;;;;;9.03;3.30;;;24.90;51.20;;;;;;5049046;28;20068;-69
2023/06/12 07:11:17;;;;;;;12.27;3.60;;;24.70;51.20;;;;;;5047976;28;20037;-69
2023/06/12 07:13:43;;;;;;;10.30;3.57;;;24.60;51.60;;;;;;5038450;28;20037;-69
2023/06/12 07:16:09;;;;;;;9.00;3.67;;;24.30;52.60;;;;;;5048087;28;20045;-69
2023/06/12 07:18:34;;;;;;;9.93;3.53;;;24.30;52.90;;;;;;5048798;28;20041;-69
2023/06/12 07:21:00;;;;;;;7.80;3.60;;;24.20;53.20;;;;;;5048888;28;20041;-69
2023/06/12 07:23:26;;;;;;;9.83;4.13;;;24.10;53.20;;;;;;5041486;28;20056;-69
2023/06/12 07:25:52;;;;;;;6.20;3.87;;;24.00;53.30;;;;;;5043806;28;20183;-69
2023/06/12 07:28:17;;;;;;;7.53;3.43;;;23.80;53.80;;;;;;5045577;28;20469;-69
2023/06/12 07:30:43;;;;;;;9.37;3.70;;;23.80;54.70;;;;;;5049233;28;20032;-69
2023/06/12 07:33:10;;;;;;;8.80;3.93;;;23.90;55.00;;;;;;5028290;28;20410;-69
2023/06/12 07:35:36;;;;;;;9.10;3.87;;;24.00;55.50;;;;;;5045411;28;20056;-69
2023/06/12 07:38:02;;;;;;;7.20;3.83;;;24.10;54.40;;;;;;5048219;28;20037;-69
2023/06/12 07:40:28;;;;;;;8.93;3.70;;;24.30;54.60;;;;;;5032638;28;20041;-69
2023/06/12 07:42:53;;;;;;;7.20;3.77;;;24.40;54.60;;;;;;5049500;28;20041;-69
2023/06/12 07:45:19;;;;;;;10.90;3.63;;;24.50;54.30;;;;;;5049262;28;20039;-69
2023/06/12 07:47:47;;;;;;;7.60;3.20;;;24.60;53.90;;;;;;5048750;28;20139;-69
2023/06/12 07:50:13;;;;;;;15.03;3.77;;;24.60;54.50;;;;;;5044980;28;20037;-69
2023/06/12 07:52:39;;;;;;;7.07;3.93;;;24.70;53.80;;;;;;5059328;28;20041;-69
2023/06/12 07:55:05;;;;;;;9.13;4.00;;;24.70;53.10;;;;;;5048057;28;20052;-69
2023/06/12 07:57:31;;;;;;;6.07;3.87;;;24.60;53.50;;;;;;5047784;28;20123;-69
2023/06/12 07:59:57;;;;;;;9.00;4.30;;;24.60;54.30;;;;;;5048989;28;20469;-69
2023/06/12 08:02:28;;;;;;;10.57;3.83;;;24.60;55.10;;;;;;5049222;28;20436;-69
2023/06/12 08:04:55;;;;;;;7.17;4.00;;;24.50;54.70;;;;;;5065114;28;20492;-69
2023/06/12 08:07:22;;;;;;;8.70;4.13;;;24.50;56.10;;;;;;5047440;28;20076;-69
2023/06/12 08:09:47;;;;;;;6.00;3.60;;;24.50;55.80;;;;;;5048887;28;20489;-69
2023/06/12 08:12:13;;;;;;;6.60;4.00;;;24.60;55.30;;;;;;5044736;28;20067;-69
2023/06/12 08:14:40;;;;;;;8.37;3.53;;;24.70;54.80;;;;;;5048107;28;20110;-69
2023/06/12 08:17:06;;;;;;;8.00;3.73;;;24.80;54.00;;;;;;5047570;28;20630;-69
2023/06/12 08:19:32;;;;;;;7.53;3.73;;;24.90;55.20;;;;;;5046195;28;20392;-69
2023/06/12 08:21:59;;;;;;;6.90;3.40;;;25.00;55.30;;;;;;5039612;28;20460;-69
2023/06/12 08:24:29;;;;;;;8.27;4.00;;;25.10;55.00;;;;;;5047587;28;20049;-69
2023/06/12 08:26:56;;;;;;;8.97;4.03;;;25.20;53.50;;;;;;5044989;28;20033;-69
2023/06/12 08:29:22;;;;;;;9.33;4.53;;;25.30;53.50;;;;;;5049342;28;20032;-69
2023/06/12 08:31:47;;;;;;;6.40;3.90;;;25.40;52.90;;;;;;5049808;28;20040;-69
2023/06/12 08:34:13;;;;;;;7.10;3.53;;;25.40;52.80;;;;;;5048179;28;20124;-69
2023/06/12 08:36:39;;;;;;;8.97;4.07;;;25.40;52.90;;;;;;5048370;28;20036;-69
2023/06/12 08:39:05;;;;;;;6.97;3.73;;;25.50;53.10;;;;;;5046182;28;20128;-69
2023/06/12 08:41:34;;;;;;;5.40;3.20;;;25.60;52.90;;;;;;5046402;28;20098;-69
2023/06/12 08:44:00;;;;;;;6.20;3.50;;;25.60;52.70;;;;;;5048760;28;20557;-69
2023/06/12 08:46:30;;;;;;;8.97;3.60;;;25.70;52.00;;;;;;5047044;28;20064;-69
2023/06/12 08:48:59;;;;;;;10.33;3.80;;;25.80;50.40;;;;;;5032311;28;20037;-69
2023/06/12 08:51:25;;;;;;;5.70;3.50;;;25.80;49.70;;;;;;5048756;28;20075;-69
2023/06/12 08:53:51;;;;;;;7.07;3.27;;;25.90;49.30;;;;;;5045229;28;20059;-69
2023/06/12 08:56:18;;;;;;;6.90;3.70;;;25.90;49.20;;;;;;5030929;28;20099;-69
2023/06/12 08:58:44;;;;;;;5.10;2.80;;;26.00;50.20;;;;;;5048109;28;20063;-69
2023/06/12 09:01:12;;;;;;;6.40;3.10;;;26.20;48.30;;;;;;5047867;28;20041;-69
2023/06/12 09:03:43;;;;;;;6.80;3.00;;;26.30;46.70;;;;;;5045517;28;20131;-69
2023/06/12 09:06:11;;;;;;;7.90;3.27;;;26.30;45.90;;;;;;5046657;28;20548;-69
2023/06/12 09:08:38;;;;;;;5.03;3.00;;;26.40;46.10;;;;;;5039995;28;20036;-69
2023/06/12 09:11:04;;;;;;;7.47;2.97;;;26.50;45.80;;;;;;5044151;28;20099;-69
2023/06/12 09:13:43;;;;;;;6.07;2.83;;;26.60;46.30;;;;;;5025401;28;20497;-69
2023/06/12 09:16:13;;;;;;;7.13;3.00;;;26.70;44.70;;;;;;5032043;28;20037;-69
2023/06/12 09:18:49;;;;;;;9.53;3.10;;;26.70;44.90;;;;;;5047161;28;20037;-69
2023/06/12 09:21:15;;;;;;;5.70;3.30;;;26.70;44.80;;;;;;5035002;28;20041;-69
2023/06/12 09:23:43;;;;;;;7.80;3.20;;;26.60;44.80;;;;;;5029990;28;20056;-69
2023/06/12 09:26:15;;;;;;;7.60;3.50;;;26.70;43.90;;;;;;5063041;28;20055;-69
2023/06/12 09:28:42;;;;;;;6.33;3.27;;;26.70;44.40;;;;;;5062583;28;20039;-69
2023/06/12 09:31:08;;;;;;;8.87;3.53;;;26.70;45.30;;;;;;5047661;28;20045;-69
2023/06/12 09:33:41;;;;;;;10.27;3.50;;;26.80;46.10;;;;;;5027350;28;20343;-69
2023/06/12 09:36:10;;;;;;;5.23;3.40;;;26.90;46.20;;;;;;5043107;28;20088;-69
2023/06/12 09:38:36;;;;;;;5.73;2.63;;;27.00;46.50;;;;;;5042797;28;20041;-69
2023/06/12 09:41:07;;;;;;;8.33;3.20;;;27.00;45.30;;;;;;5028098;28;20072;-69
2023/06/12 09:43:33;;;;;;;5.87;3.07;;;27.00;44.80;;;;;;5055503;28;20045;-69
2023/06/12 09:46:05;;;;;;;5.33;3.07;;;27.00;44.60;;;;;;5039594;28;20033;-69
2023/06/12 09:48:38;;;;;;;6.33;3.13;;;27.00;44.40;;;;;;5046808;28;20115;-69
2023/06/12 09:51:08;;;;;;;5.87;3.20;;;27.00;43.40;;;;;;5029290;28;20090;-69
2023/06/12 09:53:39;;;;;;;6.93;3.80;;;26.90;44.10;;;;;;5045616;28;20184;-69
2023/06/12 09:56:09;;;;;;;5.23;3.20;;;26.80;45.20;;;;;;5046238;28;20127;-69
2023/06/12 09:58:36;;;;;;;7.57;3.00;;;26.80;44.30;;;;;;5058150;28;20052;-69
2023/06/12 10:01:08;;;;;;;6.70;3.00;;;26.90;44.30;;;;;;5043875;28;20060;-69
2023/06/12 10:03:39;;;;;;;7.70;2.93;;;27.00;43.80;;;;;;5046104;28;20041;-69
2023/06/12 10:06:11;;;;;;;4.60;2.80;;;27.10;40.80;;;;;;5061160;28;20447;-69
2023/06/12 10:08:37;;;;;;;3.90;2.87;;;27.10;41.20;;;;;;5046950;28;20033;-69
2023/06/12 10:11:05;;;;;;;4.20;2.87;;;27.10;41.20;;;;;;5046133;28;20516;-69
2023/06/12 10:13:35;;;;;;;5.13;2.87;;;27.20;41.70;;;;;;5045534;28;20041;-69
2023/06/12 10:16:01;;;;;;;7.33;2.70;;;27.40;41.40;;;;;;5046161;28;20044;-69
2023/06/12 10:18:28;;;;;;;5.87;2.80;;;27.50;40.20;;;;;;5042535;28;20370;-69
2023/06/12 10:20:54;;;;;;;5.53;2.50;;;27.60;41.20;;;;;;5045620;28;20048;-69
2023/06/12 10:23:24;;;;;;;4.10;2.63;;;27.70;40.30;;;;;;5061535;28;20061;-69
2023/06/12 10:25:50;;;;;;;3.70;2.60;;;27.80;37.50;;;;;;5040686;28;20076;-69
2023/06/12 10:28:16;;;;;;;4.93;2.83;;;27.90;38.00;;;;;;5043223;28;20513;-69
2023/06/12 10:31:23;;;;;;;4.10;2.73;;;27.90;38.00;;;;;;5043622;28;20037;-69
2023/06/12 10:34:00;;;;;;;5.37;2.57;;;27.90;37.50;;;;;;5029305;28;20091;-69
2023/06/12 10:36:37;;;;;;;4.73;2.77;;;28.00;37.80;;;;;;5050840;28;20091;-69
2023/06/12 10:39:04;;;;;;;4.20;2.60;;;28.00;37.50;;;;;;5046849;28;20504;-69
2023/06/12 10:41:33;;;;;;;6.03;3.03;;;28.10;38.10;;;;;;5046879;28;20087;-69
2023/06/12 10:43:59;;;;;;;5.37;2.83;;;28.10;38.90;;;;;;5045322;28;20043;-69
2023/06/12 10:46:45;;;;;;;10.33;2.53;;;28.20;37.40;;;;;;5044537;28;20041;-69
2023/06/12 10:49:12;;;;;;;5.97;2.73;;;28.30;39.20;;;;;;5047598;28;20041;-69
2023/06/12 10:51:45;;;;;;;4.13;2.53;;;28.40;37.30;;;;;;5030513;28;20126;-69
2023/06/12 10:54:15;;;;;;;11.05;3.65;;;28.50;37.60;;;;;;5039389;28;20068;-69
2023/06/12 10:56:57;;;;;;;6.73;2.90;;;28.60;37.40;;;;;;5046723;28;20483;-70
2023/06/12 10:59:38;;;;;;;8.50;3.07;;;28.60;38.50;;;;;;5047161;28;20496;-69
2023/06/12 11:02:04;;;;;;;4.40;2.43;;;28.70;38.70;;;;;;5044171;28;20311;-69
2023/06/12 11:04:39;;;;;;;5.33;2.40;;;28.70;36.60;;;;;;5041171;28;20044;-69
2023/06/12 11:07:05;;;;;;;5.77;2.37;;;28.70;36.30;;;;;;5046590;28;20454;-69
2023/06/12 11:09:41;;;;;;;5.60;2.50;;;28.80;36.80;;;;;;5047531;28;20116;-69
2023/06/12 11:12:10;;;;;;;3.73;2.63;;;28.90;35.30;;;;;;5042681;28;20040;-69
2023/06/12 11:14:36;;;;;;;4.50;2.30;;;28.90;34.30;;;;;;5045653;28;20044;-69
2023/06/12 11:17:01;;;;;;;5.57;2.60;;;29.00;34.00;;;;;;5046843;28;20173;-69
2023/06/12 11:19:28;;;;;;;3.10;2.43;;;29.00;34.60;;;;;;5040977;28;20120;-69
2023/06/12 11:21:57;;;;;;;5.17;2.47;;;29.00;35.50;;;;;;5046982;28;20058;-69
2023/06/12 11:24:23;;;;;;;4.27;2.57;;;29.20;34.70;;;;;;5047356;28;20136;-69
2023/06/12 11:26:50;;;;;;;4.23;2.63;;;29.20;35.50;;;;;;5043608;28;20045;-69
2023/06/12 11:29:17;;;;;;;9.80;3.00;;;29.20;36.20;;;;;;5031192;28;20469;-69
2023/06/12 11:31:58;;;;;;;4.57;2.77;;;29.40;35.80;;;;;;5047202;28;20041;-69
2023/06/12 11:34:24;;;;;;;4.50;2.57;;;29.50;35.20;;;;;;5061078;28;20053;-69
2023/06/12 11:36:50;;;;;;;5.27;2.70;;;29.60;35.50;;;;;;5047054;28;20037;-69
2023/06/12 11:39:17;;;;;;;3.73;2.67;;;29.70;35.10;;;;;;5041816;28;20045;-69
2023/06/12 11:41:46;;;;;;;5.87;2.60;;;29.70;34.30;;;;;;5047249;28;20048;-69
2023/06/12 11:44:15;;;;;;;6.17;2.80;;;29.70;34.20;;;;;;5048710;28;20105;-69
2023/06/12 11:46:41;;;;;;;4.47;2.63;;;29.80;33.80;;;;;;5030170;28;20269;-69
2023/06/12 11:49:07;;;;;;;3.70;2.50;;;29.90;34.30;;;;;;5048670;28;20041;-69
2023/06/12 11:51:33;;;;;;;3.77;2.70;;;29.80;34.00;;;;;;5049986;28;20055;-70
2023/06/12 11:54:00;;;;;;;4.63;2.50;;;29.80;34.10;;;;;;5032009;28;20041;-70
2023/06/12 11:56:25;;;;;;;5.07;2.90;;;29.80;35.60;;;;;;5047877;28;20175;-69
2023/06/12 11:58:51;;;;;;;7.17;3.07;;;29.80;34.10;;;;;;5047630;28;20131;-69
2023/06/12 12:01:23;;;;;;;3.10;2.70;;;29.90;34.10;;;;;;5049690;28;20060;-69
2023/06/12 12:03:50;;;;;;;6.90;2.77;;;30.00;33.80;;;;;;5049279;28;20131;-69
2023/06/12 12:06:17;;;;;;;5.03;2.90;;;30.00;34.50;;;;;;5048854;28;20065;-69
2023/06/12 12:08:43;;;;;;;5.33;2.63;;;30.00;34.20;;;;;;5059264;28;20123;-69
2023/06/12 12:11:16;;;;;;;6.97;2.80;;;30.10;34.60;;;;;;5049270;28;20508;-69
2023/06/12 12:13:53;;;;;;;7.03;2.97;;;30.30;34.60;;;;;;5043310;28;20078;-69
2023/06/12 12:16:25;;;;;;;4.43;3.27;;;30.50;33.50;;;;;;5044101;28;20041;-69
2023/06/12 12:18:51;;;;;;;4.40;2.77;;;30.30;34.30;;;;;;5038359;28;20044;-70
2023/06/12 12:21:19;;;;;;;7.57;3.10;;;30.30;33.70;;;;;;5040258;28;20041;-69
2023/06/12 12:23:45;;;;;;;4.20;3.13;;;30.30;34.10;;;;;;5045685;28;20045;-69
2023/06/12 12:26:15;;;;;;;6.07;3.63;;;30.40;34.20;;;;;;5040192;28;20052;-69
2023/06/12 12:28:41;;;;;;;6.47;3.13;;;30.50;33.60;;;;;;5043548;28;20140;-70
2023/06/12 12:31:08;;;;;;;5.60;3.13;;;30.60;35.30;;;;;;5048074;28;20041;-70
2023/06/12 12:33:34;;;;;;;4.77;3.57;;;30.60;33.60;;;;;;5041259;28;20064;-70
2023/06/12 12:36:00;;;;;;;4.17;3.37;;;30.80;33.40;;;;;;5027372;28;20029;-70
2023/06/12 12:38:26;;;;;;;5.60;3.67;;;30.80;34.30;;;;;;5033271;28;20095;-69
2023/06/12 12:40:52;;;;;;;5.10;3.10;;;31.00;34.50;;;;;;5044796;28;20037;-69
2023/06/12 12:43:17;;;;;;;5.50;3.50;;;31.00;33.40;;;;;;5042792;28;20033;-69
2023/06/12 12:45:43;;;;;;;8.10;3.60;;;31.00;33.40;;;;;;5045991;28;20118;-69
2023/06/12 12:48:09;;;;;;;5.27;3.30;;;30.90;33.40;;;;;;5046120;28;20040;-69